createdAt,value
2019-01-24T00:00:03.720Z,80.23
2019-01-24T00:02:30.337Z,74.27
2019-01-24T00:04:56.967Z,68.40
2019-01-24T00:07:23.621Z,71.07
2019-01-24T00:09:50.236Z,77.07
2019-01-24T00:12:16.893Z,83.07
2019-01-24T00:14:43.520Z,81.73
2019-01-24T00:17:10.183Z,78.53
2019-01-24T00:19:36.844Z,67.50
2019-01-24T00:22:03.860Z,79.20
2019-01-24T00:24:30.512Z,79.63
2019-01-24T00:26:57.139Z,70.73
2019-01-24T00:29:23.811Z,75.57
2019-01-24T00:31:50.449Z,92.80
2019-01-24T00:34:23.053Z,74.40
2019-01-24T00:36:45.541Z,80.20
2019-01-24T00:39:12.163Z,94.20
2019-01-24T00:41:38.842Z,81.87
2019-01-24T00:44:05.501Z,82.00
2019-01-24T00:46:32.167Z,70.37
2019-01-24T00:48:58.788Z,95.13
2019-01-24T00:51:25.459Z,77.53
2019-01-24T00:53:52.124Z,82.07
2019-01-24T00:56:18.760Z,84.53
2019-01-24T00:58:45.420Z,79.23
2019-01-24T01:01:12.064Z,81.60
2019-01-24T01:03:38.740Z,82.60
2019-01-24T01:06:05.527Z,86.20
2019-01-24T01:08:33.162Z,76.20
2019-01-24T01:10:59.836Z,79.60
2019-01-24T01:13:26.451Z,88.73
2019-01-24T01:15:53.108Z,80.37
2019-01-24T01:18:19.735Z,89.03
2019-01-24T01:20:46.347Z,78.80
2019-01-24T01:23:13.019Z,78.53
2019-01-24T01:25:39.650Z,85.47
2019-01-24T01:28:06.343Z,84.03
2019-01-24T01:30:32.967Z,75.23
2019-01-24T01:32:59.647Z,71.60
2019-01-24T01:35:26.287Z,95.30
2019-01-24T01:37:52.959Z,73.07
2019-01-24T01:40:19.698Z,77.40
2019-01-24T01:42:47.056Z,80.63
2019-01-24T01:45:18.776Z,92.03
2019-01-24T01:47:45.892Z,78.50
2019-01-24T01:50:16.214Z,79.67
2019-01-24T01:52:42.850Z,86.70
2019-01-24T01:55:10.407Z,86.60
2019-01-24T01:57:38.264Z,86.83
2019-01-24T02:00:11.308Z,67.33
2019-01-24T02:02:38.120Z,87.50
2019-01-24T02:05:07.281Z,97.00
2019-01-24T02:07:33.951Z,87.90
2019-01-24T02:12:36.267Z,84.67
2019-01-24T02:15:05.887Z,97.40
2019-01-24T02:17:32.577Z,89.03
2019-01-24T02:19:59.195Z,98.57
2019-01-24T02:22:25.920Z,107.87
2019-01-24T02:24:52.609Z,99.27
2019-01-24T02:27:19.224Z,99.40
2019-01-24T02:29:45.987Z,90.13
2019-01-24T02:32:12.623Z,96.90
2019-01-24T02:34:39.300Z,77.57
2019-01-24T02:37:05.941Z,94.53
2019-01-24T02:39:32.600Z,88.33
2019-01-24T02:41:59.320Z,93.43
2019-01-24T02:44:25.940Z,91.47
2019-01-24T02:46:52.623Z,92.50
2019-01-24T02:49:19.243Z,78.97
2019-01-24T02:51:45.926Z,80.27
2019-01-24T02:54:12.575Z,81.87
2019-01-24T02:56:39.211Z,88.77
2019-01-24T02:59:05.868Z,85.20
2019-01-24T03:01:32.541Z,86.90
2019-01-24T03:03:59.212Z,75.93
2019-01-24T03:06:25.813Z,83.03
2019-01-24T03:08:52.499Z,72.00
2019-01-24T03:11:19.203Z,80.00
2019-01-24T03:13:45.946Z,81.77
2019-01-24T03:16:12.639Z,76.93
2019-01-24T03:18:39.308Z,84.00
2019-01-24T03:21:06.061Z,86.20
2019-01-24T03:23:32.670Z,83.43
2019-01-24T03:25:59.377Z,84.07
2019-01-24T03:28:25.999Z,92.13
2019-01-24T03:30:52.717Z,76.60
2019-01-24T03:33:19.316Z,76.30
2019-01-24T03:35:45.960Z,71.57
2019-01-24T03:38:12.616Z,78.87
2019-01-24T03:40:39.241Z,79.47
2019-01-24T03:43:05.931Z,76.43
2019-01-24T03:45:32.544Z,74.43
2019-01-24T03:47:59.193Z,81.20
2019-01-24T03:50:25.815Z,68.10
2019-01-24T03:52:52.527Z,80.43
2019-01-24T03:55:20.270Z,69.30
2019-01-24T03:57:46.984Z,77.23
2019-01-24T04:00:18.637Z,68.80
2019-01-24T04:02:45.256Z,77.87
2019-01-24T04:05:12.640Z,85.57
2019-01-24T04:07:40.219Z,69.57
2019-01-24T04:10:12.278Z,75.33
2019-01-24T04:12:38.955Z,71.53
2019-01-24T04:15:11.780Z,64.87
2019-01-24T04:17:38.554Z,54.40
2019-01-24T04:20:07.580Z,60.23
2019-01-24T04:22:34.250Z,73.07
2019-01-24T04:25:00.888Z,55.40
2019-01-24T04:27:27.593Z,71.60
2019-01-24T04:29:54.289Z,57.97
2019-01-24T04:32:20.916Z,80.97
2019-01-24T04:34:47.588Z,72.23
2019-01-24T04:37:14.204Z,65.17
2019-01-24T04:39:40.857Z,71.50
2019-01-24T04:42:07.519Z,62.87
2019-01-24T04:44:34.167Z,54.20
2019-01-24T04:47:00.828Z,55.60
2019-01-24T04:49:27.453Z,59.67
2019-01-24T04:51:54.129Z,57.47
2019-01-24T04:54:20.825Z,58.63
2019-01-24T04:56:47.485Z,65.17
2019-01-24T04:59:14.135Z,67.63
2019-01-24T05:01:40.788Z,63.10
2019-01-24T05:04:07.401Z,57.47
2019-01-24T05:06:34.056Z,51.53
2019-01-24T05:09:00.756Z,57.00
2019-01-24T05:11:27.377Z,60.33
2019-01-24T05:13:54.192Z,59.47
2019-01-24T05:16:20.837Z,46.77
2019-01-24T05:18:47.500Z,59.33
2019-01-24T05:21:14.150Z,58.10
2019-01-24T05:23:40.771Z,59.10
2019-01-24T05:26:07.531Z,56.93
2019-01-24T05:28:34.153Z,54.67
2019-01-24T05:31:00.807Z,60.33
2019-01-24T05:33:27.557Z,60.20
2019-01-24T05:35:54.207Z,49.80
2019-01-24T05:38:20.828Z,64.17
2019-01-24T05:40:47.508Z,53.83
2019-01-24T05:43:14.144Z,54.70
2019-01-24T05:45:40.816Z,45.37
2019-01-24T05:48:07.493Z,54.00
2019-01-24T05:50:34.171Z,55.83
2019-01-24T05:53:00.826Z,44.60
2019-01-24T05:55:27.692Z,59.80
2019-01-24T05:57:54.455Z,54.30
2019-01-24T06:00:23.297Z,54.20
2019-01-24T06:02:49.872Z,57.47
2019-01-24T06:05:16.971Z,49.03
2019-01-24T06:07:43.643Z,52.37
2019-01-24T06:10:14.849Z,34.80
2019-01-24T06:12:41.647Z,39.83
2019-01-24T06:15:14.449Z,51.17
2019-01-24T06:17:41.026Z,54.57
2019-01-24T06:20:09.406Z,47.70
2019-01-24T06:22:36.047Z,58.73
2019-01-24T06:25:05.340Z,49.80
2019-01-24T06:27:31.981Z,45.27
2019-01-24T06:29:58.596Z,59.70
2019-01-24T06:32:25.456Z,55.43
2019-01-24T06:34:54.079Z,55.40
2019-01-24T06:37:20.695Z,48.87
2019-01-24T06:39:47.316Z,43.57
2019-01-24T06:42:14.000Z,49.47
2019-01-24T06:44:40.848Z,51.47
2019-01-24T06:47:07.508Z,43.87
2019-01-24T06:49:34.187Z,51.03
2019-01-24T06:52:00.856Z,40.30
2019-01-24T06:54:27.629Z,55.23
2019-01-24T06:56:54.601Z,53.50
2019-01-24T06:59:21.372Z,47.90
2019-01-24T07:01:47.991Z,45.27
2019-01-24T07:04:14.680Z,53.57
2019-01-24T07:06:41.297Z,56.60
2019-01-24T07:09:07.956Z,36.77
2019-01-24T07:11:34.628Z,49.50
2019-01-24T07:14:01.301Z,48.83
2019-01-24T07:16:28.114Z,46.30
2019-01-24T07:18:54.723Z,51.67
2019-01-24T07:21:21.388Z,52.40
2019-01-24T07:23:47.999Z,46.77
2019-01-24T07:26:14.616Z,51.70
2019-01-24T07:28:41.283Z,56.60
2019-01-24T07:31:07.888Z,47.37
2019-01-24T07:33:34.552Z,51.87
2019-01-24T07:36:02.301Z,46.03
2019-01-24T07:38:29.219Z,41.03
2019-01-24T07:40:55.853Z,69.63
2019-01-24T07:43:22.525Z,47.90
2019-01-24T07:45:49.164Z,44.57
2019-01-24T07:48:15.825Z,50.37
2019-01-24T07:50:42.486Z,51.97
2019-01-24T07:53:09.145Z,49.73
2019-01-24T07:55:35.825Z,48.30
2019-01-24T07:58:03.344Z,40.33
2019-01-24T08:00:30.325Z,58.03
2019-01-24T08:02:56.949Z,52.73
2019-01-24T08:05:25.482Z,44.03
2019-01-24T08:07:52.233Z,53.67
2019-01-24T08:10:20.421Z,53.40
2019-01-24T08:12:47.123Z,50.73
2019-01-24T08:15:15.689Z,54.10
2019-01-24T08:17:42.469Z,42.37
2019-01-24T08:20:12.100Z,54.87
2019-01-24T08:22:38.802Z,54.13
2019-01-24T08:25:07.532Z,52.83
2019-01-24T08:27:34.158Z,46.93
2019-01-24T08:30:01.053Z,44.60
2019-01-24T08:32:27.669Z,53.93
2019-01-24T08:34:54.450Z,60.60
2019-01-24T08:37:21.105Z,59.07
2019-01-24T08:39:47.765Z,50.90
2019-01-24T08:42:14.409Z,53.07
2019-01-24T08:44:41.059Z,45.60
2019-01-24T08:47:07.794Z,54.27
2019-01-24T08:49:34.460Z,53.87
2019-01-24T08:52:01.159Z,49.33
2019-01-24T08:54:27.796Z,57.43
2019-01-24T08:56:54.465Z,56.43
2019-01-24T08:59:21.085Z,54.60
2019-01-24T09:01:47.781Z,55.77
2019-01-24T09:04:14.426Z,57.00
2019-01-24T09:06:41.167Z,44.90
2019-01-24T09:09:08.225Z,49.60
2019-01-24T09:11:34.874Z,51.20
2019-01-24T09:14:01.654Z,45.00
2019-01-24T09:16:28.374Z,56.10
2019-01-24T09:18:55.016Z,44.07
2019-01-24T09:21:21.693Z,55.80
2019-01-24T09:23:48.326Z,59.23
2019-01-24T09:26:15.115Z,44.67
2019-01-24T09:28:41.749Z,47.60
2019-01-24T09:31:08.430Z,50.97
2019-01-24T09:33:35.085Z,58.37
2019-01-24T09:36:01.702Z,48.33
2019-01-24T09:38:28.365Z,50.70
2019-01-24T09:40:55.003Z,60.80
2019-01-24T09:43:22.532Z,60.40
2019-01-24T09:45:49.104Z,53.27
2019-01-24T09:48:15.764Z,54.10
2019-01-24T09:50:42.496Z,52.30
2019-01-24T09:53:09.176Z,64.10
2019-01-24T09:55:35.869Z,57.07
2019-01-24T09:58:02.977Z,49.10
2019-01-24T10:00:31.840Z,53.13
2019-01-24T10:02:58.467Z,54.23
2019-01-24T10:05:26.361Z,60.07
2019-01-24T10:07:53.277Z,50.67
2019-01-24T10:10:24.772Z,45.40
2019-01-24T10:12:52.050Z,48.10
2019-01-24T10:15:20.084Z,54.57
2019-01-24T10:17:46.840Z,52.17
2019-01-24T10:20:15.513Z,51.37
2019-01-24T10:22:42.270Z,52.97
2019-01-24T10:25:12.038Z,51.33
2019-01-24T10:27:38.673Z,54.67
2019-01-24T10:30:09.025Z,51.50
2019-01-24T10:32:35.705Z,51.93
2019-01-24T10:35:04.547Z,44.83
2019-01-24T10:37:31.186Z,54.63
2019-01-24T10:39:57.854Z,57.33
2019-01-24T10:42:24.493Z,45.63
2019-01-24T10:44:51.165Z,53.37
2019-01-24T10:47:17.806Z,49.43
2019-01-24T10:49:44.442Z,62.33
2019-01-24T10:52:11.149Z,58.23
2019-01-24T10:54:37.782Z,50.07
2019-01-24T10:57:04.666Z,52.80
2019-01-24T10:59:31.278Z,65.77
2019-01-24T11:01:58.073Z,54.07
2019-01-24T11:04:24.694Z,52.40
2019-01-24T11:06:51.429Z,66.57
2019-01-24T11:09:18.101Z,62.13
2019-01-24T11:11:45.176Z,61.23
2019-01-24T11:14:12.795Z,54.27
2019-01-24T11:16:39.636Z,58.07
2019-01-24T11:19:06.389Z,58.10
2019-01-24T11:21:34.317Z,59.53
2019-01-24T11:24:01.109Z,54.60
2019-01-24T11:26:27.739Z,54.67
2019-01-24T11:28:54.587Z,60.20
2019-01-24T11:31:21.240Z,65.20
2019-01-24T11:33:47.917Z,49.40
2019-01-24T11:36:14.553Z,63.80
2019-01-24T11:38:41.250Z,57.63
2019-01-24T11:41:07.900Z,53.10
2019-01-24T11:43:34.529Z,65.33
2019-01-24T11:46:01.306Z,57.23
2019-01-24T11:48:27.977Z,52.33
2019-01-24T11:50:54.654Z,50.60
2019-01-24T11:53:21.341Z,61.87
2019-01-24T11:55:49.238Z,55.90
2019-01-24T11:58:15.878Z,61.63
2019-01-24T12:00:44.398Z,56.63
2019-01-24T12:03:11.177Z,53.00
2019-01-24T12:05:37.881Z,58.73
2019-01-24T12:08:05.232Z,60.67
2019-01-24T12:10:31.885Z,55.30
2019-01-24T12:12:58.662Z,60.23
2019-01-24T12:15:28.046Z,63.40
2019-01-24T12:17:54.720Z,60.20
2019-01-24T12:20:23.091Z,55.10
2019-01-24T12:22:50.011Z,57.13
2019-01-24T12:25:16.678Z,55.00
2019-01-24T12:27:43.412Z,52.03
2019-01-24T12:30:16.250Z,53.87
2019-01-24T12:32:42.928Z,53.53
2019-01-24T12:35:09.558Z,62.67
2019-01-24T12:37:36.238Z,56.20
2019-01-24T12:40:05.570Z,57.67
2019-01-24T12:42:32.236Z,52.73
2019-01-24T12:44:58.864Z,60.97
2019-01-24T12:47:25.637Z,50.27
2019-01-24T12:49:52.262Z,60.90
2019-01-24T12:52:18.928Z,58.47
2019-01-24T12:54:46.750Z,56.63
2019-01-24T12:57:13.490Z,53.30
2019-01-24T12:59:40.606Z,50.07
2019-01-24T13:02:07.269Z,55.37
2019-01-24T13:04:34.033Z,50.00
2019-01-24T13:07:00.769Z,56.87
2019-01-24T13:09:27.458Z,55.73
2019-01-24T13:11:54.088Z,57.60
2019-01-24T13:14:20.782Z,62.30
2019-01-24T13:16:47.446Z,55.10
2019-01-24T13:19:14.137Z,53.33
2019-01-24T13:21:40.777Z,54.93
2019-01-24T13:24:07.517Z,54.67
2019-01-24T13:26:34.206Z,65.20
2019-01-24T13:29:01.001Z,60.20
2019-01-24T13:31:28.661Z,59.73
2019-01-24T13:33:55.262Z,53.73
2019-01-24T13:36:21.922Z,54.77
2019-01-24T13:38:48.558Z,52.47
2019-01-24T13:41:15.334Z,53.27
2019-01-24T13:43:42.098Z,62.83
2019-01-24T13:46:08.816Z,58.47
2019-01-24T13:48:35.501Z,43.73
2019-01-24T13:51:22.012Z,58.03
2019-01-24T13:53:48.784Z,54.73
2019-01-24T13:56:15.390Z,57.97
2019-01-24T13:58:42.075Z,65.13
2019-01-24T14:01:08.713Z,56.53
2019-01-24T14:03:42.095Z,52.53
2019-01-24T14:06:05.423Z,48.40
2019-01-24T14:08:32.129Z,50.20
2019-01-24T14:10:58.838Z,66.63
2019-01-24T14:13:25.485Z,50.57
2019-01-24T14:15:52.158Z,57.33
2019-01-24T14:18:18.788Z,54.97
2019-01-24T14:20:45.429Z,60.03
2019-01-24T14:23:12.096Z,50.93
2019-01-24T14:25:38.819Z,55.93
2019-01-24T14:28:05.579Z,55.80
2019-01-24T14:30:32.244Z,62.40
2019-01-24T14:32:59.022Z,63.87
2019-01-24T14:35:25.635Z,60.40
2019-01-24T14:37:52.345Z,48.70
2019-01-24T14:40:19.002Z,61.07
2019-01-24T14:42:45.741Z,55.60
2019-01-24T14:45:27.307Z,62.73
2019-01-24T14:47:54.135Z,65.40
2019-01-24T14:50:23.033Z,59.07
2019-01-24T14:52:49.764Z,48.70
2019-01-24T14:55:16.481Z,60.40
2019-01-24T14:57:43.309Z,63.40
2019-01-24T15:00:13.879Z,55.87
2019-01-24T15:02:41.379Z,61.17
2019-01-24T15:05:09.467Z,61.20
2019-01-24T15:07:36.139Z,64.77
2019-01-24T15:10:05.721Z,66.07
2019-01-24T15:12:33.437Z,66.37
2019-01-24T15:15:00.096Z,67.43
2019-01-24T15:17:26.849Z,68.60
2019-01-24T15:19:53.622Z,70.03
2019-01-24T15:22:20.386Z,55.83
2019-01-24T15:24:47.044Z,53.33
2019-01-24T15:27:13.784Z,53.57
2019-01-24T15:29:40.465Z,63.57
2019-01-24T15:32:07.100Z,61.27
2019-01-24T15:34:33.741Z,59.93
2019-01-24T15:37:00.423Z,65.90
2019-01-24T15:39:27.057Z,71.60
2019-01-24T15:41:53.777Z,58.97
2019-01-24T15:44:20.448Z,64.87
2019-01-24T15:46:47.078Z,70.23
2019-01-24T15:49:13.745Z,58.70
2019-01-24T15:51:40.590Z,58.93
2019-01-24T15:54:07.341Z,65.23
2019-01-24T15:56:34.002Z,57.90
2019-01-24T15:59:00.731Z,69.20
2019-01-24T16:01:27.350Z,63.00
2019-01-24T16:03:54.018Z,67.47
2019-01-24T16:06:20.678Z,68.67
2019-01-24T16:08:47.317Z,56.90
2019-01-24T16:11:13.978Z,64.03
2019-01-24T16:13:40.641Z,68.43
2019-01-24T16:16:08.460Z,71.70
2019-01-24T16:18:35.091Z,70.63
2019-01-24T16:21:01.773Z,68.17
2019-01-24T16:23:28.396Z,64.10
2019-01-24T16:25:55.723Z,70.33
2019-01-24T16:28:24.850Z,74.43
2019-01-24T16:30:50.795Z,66.17
2019-01-24T16:33:17.428Z,58.17
2019-01-24T16:35:44.158Z,66.60
2019-01-24T16:38:10.938Z,70.23
2019-01-24T16:40:37.564Z,63.83
2019-01-24T16:43:04.428Z,70.30
2019-01-24T16:45:31.064Z,58.53
2019-01-24T16:47:58.077Z,65.10
2019-01-24T16:50:26.296Z,70.03
2019-01-24T16:52:53.073Z,69.47
2019-01-24T16:55:19.948Z,69.43
2019-01-24T16:57:47.874Z,71.80
2019-01-24T17:00:23.861Z,76.00
2019-01-24T17:02:50.596Z,71.03
2019-01-24T17:05:17.362Z,70.23
2019-01-24T17:07:44.017Z,70.17
2019-01-24T17:10:17.027Z,67.10
2019-01-24T17:12:43.695Z,60.60
2019-01-24T17:15:12.524Z,66.10
2019-01-24T17:17:39.197Z,75.30
2019-01-24T17:20:20.277Z,74.40
2019-01-24T17:22:47.059Z,66.63
2019-01-24T17:25:13.676Z,68.17
2019-01-24T17:27:46.134Z,73.40
2019-01-24T17:30:25.965Z,71.57
2019-01-24T17:32:52.912Z,66.77
2019-01-24T17:35:19.533Z,81.77
2019-01-24T17:37:46.282Z,68.43
2019-01-24T17:40:16.340Z,72.17
2019-01-24T17:42:42.996Z,59.07
2019-01-24T17:45:12.778Z,75.67
2019-01-24T17:47:39.456Z,63.80
2019-01-24T17:50:09.438Z,68.10
2019-01-24T17:52:36.100Z,63.97
2019-01-24T17:55:05.757Z,69.27
2019-01-24T17:57:32.431Z,67.60
2019-01-24T17:59:59.060Z,70.95
2019-01-24T18:02:25.818Z,67.90
2019-01-24T18:04:52.519Z,67.23
2019-01-24T18:07:19.135Z,76.93
2019-01-24T18:09:45.833Z,75.07
2019-01-24T18:12:12.569Z,67.00
2019-01-24T18:14:39.225Z,61.50
2019-01-24T18:17:05.884Z,89.33
2019-01-24T18:21:30.254Z,61.73
2019-01-24T18:23:57.172Z,60.83
2019-01-24T18:26:24.102Z,73.57
2019-01-24T18:28:51.005Z,72.73
2019-01-24T18:31:17.904Z,70.00
2019-01-24T18:33:44.789Z,77.37
2019-01-24T18:36:11.706Z,80.77
2019-01-24T18:38:38.678Z,69.13
2019-01-24T18:43:42.032Z,75.27
2019-01-24T18:46:08.960Z,86.10
2019-01-24T18:48:35.956Z,66.70
2019-01-24T18:51:03.032Z,75.07
2019-01-24T18:53:29.900Z,74.30
2019-01-24T18:55:56.826Z,74.60
2019-01-24T18:58:23.699Z,63.10
2019-01-24T19:00:50.571Z,67.43
2019-01-24T19:03:17.491Z,73.07
2019-01-24T19:05:44.352Z,63.73
2019-01-24T19:08:11.349Z,66.67
2019-01-24T19:10:38.457Z,73.20
2019-01-24T19:13:05.343Z,75.60
2019-01-24T19:15:32.205Z,74.23
2019-01-24T19:17:59.129Z,68.67
2019-01-24T19:20:26.091Z,60.07
2019-01-24T19:22:52.995Z,69.63
2019-01-24T19:25:20.771Z,74.13
2019-01-24T19:27:47.633Z,66.63
2019-01-24T19:30:19.264Z,75.87
2019-01-24T19:32:46.150Z,64.93
2019-01-24T19:35:13.062Z,76.73
2019-01-24T19:37:40.027Z,79.60
2019-01-24T19:40:08.729Z,71.07
2019-01-24T19:42:35.727Z,70.40
2019-01-24T19:45:04.548Z,65.33
2019-01-24T19:47:31.441Z,75.17
2019-01-24T19:50:24.155Z,64.73
2019-01-24T19:52:51.032Z,79.17
2019-01-24T19:55:17.894Z,76.37
2019-01-24T19:57:44.836Z,65.67
2019-01-24T20:00:13.331Z,65.17
2019-01-24T20:02:40.209Z,74.73
2019-01-24T20:05:08.620Z,65.57
2019-01-24T20:07:35.628Z,83.80
2019-01-24T20:10:04.344Z,69.57
2019-01-24T20:12:31.229Z,74.97
2019-01-24T20:14:58.153Z,79.90
2019-01-24T20:17:25.051Z,78.53
2019-01-24T20:19:51.952Z,63.53
2019-01-24T20:22:18.834Z,80.00
2019-01-24T20:24:45.739Z,74.97
2019-01-24T20:27:12.857Z,71.33
2019-01-24T20:29:40.045Z,68.47
2019-01-24T20:32:06.989Z,71.23
2019-01-24T20:34:33.869Z,67.30
2019-01-24T20:37:00.763Z,67.23
2019-01-24T20:39:27.640Z,71.00
2019-01-24T20:41:54.640Z,74.90
2019-01-24T20:44:21.621Z,66.43
2019-01-24T20:46:48.624Z,65.63
2019-01-24T20:49:15.659Z,72.50
2019-01-24T20:51:42.573Z,58.97
2019-01-24T20:54:09.491Z,72.00
2019-01-24T20:56:36.365Z,77.40
2019-01-24T20:59:03.281Z,75.30
2019-01-24T21:01:30.165Z,77.63
2019-01-24T21:03:57.172Z,67.53
2019-01-24T21:06:24.034Z,74.80
2019-01-24T21:08:50.897Z,77.57
2019-01-24T21:11:17.836Z,73.10
2019-01-24T21:13:44.717Z,69.73
2019-01-24T21:16:11.641Z,72.77
2019-01-24T21:18:38.510Z,75.33
2019-01-24T21:21:05.373Z,68.37
2019-01-24T21:23:32.300Z,77.43
2019-01-24T21:25:59.184Z,78.03
2019-01-24T21:28:26.104Z,82.30
2019-01-24T21:30:52.961Z,80.37
2019-01-24T21:33:19.872Z,66.53
2019-01-24T21:35:46.754Z,77.40
2019-01-24T21:38:13.634Z,74.43
2019-01-24T21:40:40.501Z,73.53
2019-01-24T21:43:07.429Z,77.40
2019-01-24T21:45:35.303Z,79.23
2019-01-24T21:48:02.481Z,82.17
2019-01-24T21:50:30.354Z,73.40
2019-01-24T21:52:57.293Z,73.97
2019-01-24T21:55:24.199Z,70.53
2019-01-24T21:57:51.287Z,70.13
2019-01-24T22:00:19.518Z,69.17
2019-01-24T22:02:46.614Z,71.80
2019-01-24T22:05:13.860Z,78.27
2019-01-24T22:07:40.740Z,75.10
2019-01-24T22:10:09.461Z,78.20
2019-01-24T22:12:36.344Z,79.77
2019-01-24T22:15:05.047Z,79.53
2019-01-24T22:17:32.009Z,87.20
2019-01-24T22:19:58.911Z,78.00
2019-01-24T22:22:25.804Z,93.97
2019-01-24T22:24:52.711Z,76.57
2019-01-24T22:27:19.581Z,80.60
2019-01-24T22:29:46.499Z,78.50
2019-01-24T22:32:13.465Z,87.97
2019-01-24T22:34:40.388Z,81.50
2019-01-24T22:37:07.353Z,71.57
2019-01-24T22:39:36.653Z,74.97
2019-01-24T22:42:03.147Z,90.67
2019-01-24T22:44:30.052Z,76.33
2019-01-24T22:46:56.956Z,75.57
2019-01-24T22:49:23.819Z,78.23
2019-01-24T22:51:50.772Z,84.67
2019-01-24T22:54:17.741Z,77.60
2019-01-24T22:56:44.641Z,82.67
2019-01-24T22:59:11.512Z,82.63
2019-01-24T23:01:40.228Z,78.67
2019-01-24T23:04:07.719Z,75.83
2019-01-24T23:06:34.730Z,82.70
2019-01-24T23:09:01.609Z,86.90
2019-01-24T23:11:28.480Z,91.10
2019-01-24T23:13:55.377Z,83.57
2019-01-24T23:16:22.390Z,80.97
2019-01-24T23:18:49.292Z,86.53
2019-01-24T23:21:16.255Z,83.67
2019-01-24T23:23:43.257Z,84.97
2019-01-24T23:26:10.221Z,84.30
2019-01-24T23:28:37.203Z,79.60
2019-01-24T23:31:04.508Z,83.60
2019-01-24T23:33:31.384Z,75.83
2019-01-24T23:35:58.280Z,74.47
2019-01-24T23:38:25.155Z,88.53
2019-01-24T23:40:52.025Z,77.07
2019-01-24T23:43:18.941Z,107.77
2019-01-24T23:45:46.098Z,94.40
2019-01-24T23:48:13.004Z,82.80
2019-01-24T23:50:39.960Z,74.60
2019-01-24T23:53:06.875Z,91.63
2019-01-24T23:55:33.815Z,87.57
2019-01-24T23:58:00.653Z,77.50
